createdAt,value
2023-03-22T00:02:43.409Z,2.31
2023-03-22T00:05:45.497Z,2.28
2023-03-22T00:08:53.285Z,2.24
2023-03-22T00:11:55.186Z,2.20
2023-03-22T00:14:57.417Z,2.12
2023-03-22T00:17:59.890Z,2.07
2023-03-22T00:21:01.940Z,2.06
2023-03-22T00:24:03.963Z,2.06
2023-03-22T00:27:05.887Z,2.06
2023-03-22T00:30:09.872Z,2.08
2023-03-22T00:33:11.755Z,2.06
2023-03-22T00:36:13.715Z,2.02
2023-03-22T00:39:16.551Z,2.02
2023-03-22T00:42:18.369Z,2.03
2023-03-22T00:45:23.399Z,2.00
2023-03-22T00:48:25.687Z,1.97
2023-03-22T00:51:27.647Z,1.96
2023-03-22T00:54:29.653Z,1.99
2023-03-22T00:57:31.589Z,2.01
2023-03-22T01:00:35.226Z,2.01
2023-03-22T01:03:38.794Z,1.99
2023-03-22T01:06:41.008Z,2.00
2023-03-22T01:09:42.829Z,2.03
2023-03-22T01:12:44.804Z,2.01
2023-03-22T01:15:50.605Z,2.01
2023-03-22T01:18:52.858Z,2.03
2023-03-22T01:21:55.054Z,2.03
2023-03-22T01:24:57.373Z,2.05
2023-03-22T01:27:59.270Z,2.05
2023-03-22T01:31:02.508Z,2.04
2023-03-22T01:34:04.676Z,2.03
2023-03-22T01:37:07.024Z,2.01
2023-03-22T01:40:12.765Z,1.98
2023-03-22T01:43:17.259Z,1.96
2023-03-22T01:46:20.164Z,1.92
2023-03-22T01:49:22.062Z,1.93
2023-03-22T01:52:24.150Z,1.92
2023-03-22T01:55:35.228Z,1.94
2023-03-22T01:58:51.052Z,1.94
2023-03-22T02:02:00.269Z,1.95
2023-03-22T02:05:04.301Z,1.96
2023-03-22T02:08:06.635Z,1.96
2023-03-22T02:11:33.006Z,1.93
2023-03-22T02:14:56.383Z,1.95
2023-03-22T02:18:48.016Z,1.97
2023-03-22T02:22:06.623Z,1.98
2023-03-22T02:25:14.385Z,2.01
2023-03-22T02:28:33.643Z,2.03
2023-03-22T02:31:38.679Z,2.07
2023-03-22T02:35:17.794Z,2.08
2023-03-22T02:38:57.973Z,2.12
2023-03-22T02:42:18.753Z,2.13
2023-03-22T02:45:27.861Z,2.13
2023-03-22T02:48:41.723Z,2.15
2023-03-22T02:51:53.199Z,2.15
2023-03-22T02:55:34.869Z,2.18
2023-03-22T02:58:45.898Z,2.20
2023-03-22T03:01:51.723Z,2.22
2023-03-22T03:04:54.841Z,2.23
2023-03-22T03:08:02.692Z,2.23
2023-03-22T03:11:07.246Z,2.22
2023-03-22T03:14:29.713Z,2.22
2023-03-22T03:17:43.910Z,2.24
2023-03-22T03:21:04.899Z,2.24
2023-03-22T03:24:26.002Z,2.21
2023-03-22T03:27:58.324Z,2.19
2023-03-22T03:31:08.005Z,2.21
2023-03-22T03:34:26.798Z,2.22
2023-03-22T03:37:39.871Z,2.23
2023-03-22T03:40:51.409Z,2.22
2023-03-22T03:43:56.234Z,2.20
2023-03-22T03:46:58.691Z,2.22
2023-03-22T03:50:00.829Z,2.24
2023-03-22T03:53:03.154Z,2.24
2023-03-22T03:56:05.680Z,2.26
2023-03-22T03:59:15.931Z,2.30
2023-03-22T04:02:18.035Z,2.31
2023-03-22T04:05:21.187Z,2.32
2023-03-22T04:08:23.164Z,2.33
2023-03-22T04:11:25.201Z,2.37
2023-03-22T04:14:31.781Z,2.38
2023-03-22T04:17:41.667Z,2.41
2023-03-22T04:20:46.766Z,2.46
2023-03-22T04:23:48.867Z,2.50
2023-03-22T04:26:55.604Z,2.55
2023-03-22T04:30:11.148Z,2.59
2023-03-22T04:33:40.350Z,2.65
2023-03-22T04:36:55.848Z,2.72
2023-03-22T04:40:10.396Z,2.83
2023-03-22T04:43:34.858Z,2.93
2023-03-22T04:46:39.275Z,3.04
2023-03-22T04:49:42.264Z,3.20
2023-03-22T04:52:44.974Z,3.38
2023-03-22T04:55:46.983Z,3.64
2023-03-22T04:58:49.025Z,3.92
2023-03-22T05:01:51.850Z,4.16
2023-03-22T05:04:57.771Z,4.40
2023-03-22T05:08:10.722Z,4.58
2023-03-22T05:11:16.761Z,4.73
2023-03-22T05:14:34.512Z,4.89
2023-03-22T05:17:38.003Z,5.02
2023-03-22T05:20:42.110Z,5.20
2023-03-22T05:23:51.736Z,5.43
2023-03-22T05:26:54.977Z,5.57
2023-03-22T05:30:00.453Z,5.80
2023-03-22T05:33:12.802Z,6.03
2023-03-22T05:36:21.595Z,6.24
2023-03-22T05:39:42.530Z,6.43
2023-03-22T05:42:45.884Z,6.54
2023-03-22T05:45:53.131Z,6.66
2023-03-22T05:49:06.219Z,6.77
2023-03-22T05:52:09.145Z,6.94
2023-03-22T05:55:32.136Z,7.22
2023-03-22T05:58:36.699Z,7.45
2023-03-22T06:01:39.583Z,7.65
2023-03-22T06:05:01.741Z,7.76
2023-03-22T06:08:04.423Z,7.74
2023-03-22T06:11:07.461Z,7.80
2023-03-22T06:14:10.406Z,8.06
2023-03-22T06:17:31.591Z,8.36
2023-03-22T06:20:33.826Z,8.55
2023-03-22T06:23:41.546Z,8.69
2023-03-22T06:26:44.042Z,8.68
2023-03-22T06:29:50.863Z,8.68
2023-03-22T06:33:00.621Z,8.72
2023-03-22T06:36:03.966Z,8.96
2023-03-22T06:39:17.166Z,9.25
2023-03-22T06:42:20.810Z,9.50
2023-03-22T06:45:33.571Z,9.69
2023-03-22T06:48:37.067Z,9.80
2023-03-22T06:51:46.263Z,9.86
2023-03-22T06:54:48.531Z,9.87
2023-03-22T06:57:50.474Z,10.07
2023-03-22T07:00:52.773Z,10.36
2023-03-22T07:03:57.919Z,10.59
2023-03-22T07:06:59.790Z,10.78
2023-03-22T07:10:02.552Z,10.98
2023-03-22T07:13:05.043Z,11.20
2023-03-22T07:16:08.940Z,11.43
2023-03-22T07:19:18.577Z,11.62
2023-03-22T07:22:22.519Z,11.87
2023-03-22T07:25:26.260Z,12.05
2023-03-22T07:28:37.273Z,12.25
2023-03-22T07:31:40.623Z,12.48
2023-03-22T07:34:46.538Z,12.71
2023-03-22T07:37:52.893Z,12.87
2023-03-22T07:41:01.200Z,12.96
2023-03-22T07:44:18.591Z,13.17
2023-03-22T07:47:41.054Z,13.27
2023-03-22T07:51:06.152Z,13.44
2023-03-22T07:54:08.111Z,13.62
2023-03-22T07:57:10.248Z,13.86
2023-03-22T08:00:18.636Z,14.08
2023-03-22T08:03:30.452Z,14.24
2023-03-22T08:06:43.950Z,14.32
2023-03-22T08:09:46.326Z,14.43
2023-03-22T08:12:48.227Z,14.70
2023-03-22T08:15:56.646Z,14.84
2023-03-22T08:18:59.441Z,15.03
2023-03-22T08:22:03.792Z,15.10
2023-03-22T08:25:29.667Z,15.19
2023-03-22T08:28:40.208Z,15.47
2023-03-22T08:31:42.846Z,15.68
2023-03-22T08:34:45.689Z,15.76
2023-03-22T08:37:47.602Z,15.96
2023-03-22T08:40:49.984Z,16.17
2023-03-22T08:43:56.587Z,16.30
2023-03-22T08:46:58.759Z,16.38
2023-03-22T08:50:00.981Z,16.33
2023-03-22T08:53:14.826Z,16.46
2023-03-22T08:56:24.955Z,16.63
2023-03-22T08:59:46.769Z,16.72
2023-03-22T09:03:11.746Z,16.76
2023-03-22T09:06:15.584Z,16.89
2023-03-22T09:09:18.741Z,17.03
2023-03-22T09:12:24.562Z,16.92
2023-03-22T09:15:26.645Z,17.11
2023-03-22T09:18:51.203Z,17.40
2023-03-22T09:21:56.258Z,17.49
2023-03-22T09:25:16.076Z,17.32
2023-03-22T09:28:20.700Z,17.30
2023-03-22T09:31:22.599Z,17.09
2023-03-22T09:34:36.281Z,17.07
2023-03-22T09:37:39.365Z,17.24
2023-03-22T09:41:01.725Z,17.35
2023-03-22T09:44:14.292Z,17.40
2023-03-22T09:47:24.426Z,17.35
2023-03-22T09:50:30.452Z,17.34
2023-03-22T09:53:33.471Z,17.47
2023-03-22T09:56:35.545Z,17.55
2023-03-22T09:59:57.131Z,17.73
2023-03-22T10:03:12.291Z,17.67
2023-03-22T10:06:19.448Z,17.73
2023-03-22T10:09:32.812Z,17.75
2023-03-22T10:12:52.900Z,17.71
2023-03-22T10:16:00.811Z,17.67
2023-03-22T10:19:27.102Z,17.70
2023-03-22T10:22:36.620Z,17.82
2023-03-22T10:25:41.235Z,17.91
2023-03-22T10:28:45.378Z,17.74
2023-03-22T10:31:47.233Z,17.63
2023-03-22T10:34:52.014Z,17.61
2023-03-22T10:37:57.003Z,17.71
2023-03-22T10:41:01.013Z,17.58
2023-03-22T10:44:05.534Z,17.67
2023-03-22T10:47:11.713Z,17.59
2023-03-22T10:50:21.200Z,17.64
2023-03-22T10:53:40.043Z,17.74
2023-03-22T10:56:43.199Z,17.54
2023-03-22T10:59:49.393Z,17.55
2023-03-22T11:02:54.174Z,17.58
2023-03-22T11:06:00.275Z,17.52
2023-03-22T11:09:14.448Z,17.57
2023-03-22T11:12:18.911Z,17.66
2023-03-22T11:15:34.788Z,17.56
2023-03-22T11:18:36.686Z,17.65
2023-03-22T11:21:42.099Z,17.80
2023-03-22T11:24:47.095Z,17.88
2023-03-22T11:28:06.140Z,17.87
2023-03-22T11:31:11.111Z,17.71
2023-03-22T11:34:18.706Z,17.76
2023-03-22T11:37:22.416Z,17.76
2023-03-22T11:40:30.895Z,17.67
2023-03-22T11:43:40.665Z,17.56
2023-03-22T11:46:58.033Z,17.53
2023-03-22T11:50:07.767Z,17.37
2023-03-22T11:53:17.276Z,17.39
2023-03-22T11:56:26.012Z,17.41
2023-03-22T11:59:30.760Z,17.38
2023-03-22T12:02:51.297Z,17.34
2023-03-22T12:05:53.769Z,17.38
2023-03-22T12:08:58.384Z,17.31
2023-03-22T12:12:03.657Z,17.22
2023-03-22T12:15:12.682Z,17.37
2023-03-22T12:18:29.726Z,17.45
2023-03-22T12:21:32.361Z,17.49
2023-03-22T12:24:34.231Z,17.48
2023-03-22T12:27:38.864Z,17.39
2023-03-22T12:30:49.120Z,17.28
2023-03-22T12:33:54.968Z,17.18
2023-03-22T12:36:57.318Z,17.19
2023-03-22T12:40:08.625Z,17.19
2023-03-22T12:43:20.021Z,16.90
2023-03-22T12:46:48.122Z,16.73
2023-03-22T12:50:18.392Z,16.61
2023-03-22T12:53:22.842Z,16.59
2023-03-22T12:56:29.688Z,16.69
2023-03-22T12:59:32.551Z,16.75
2023-03-22T13:02:38.753Z,16.94
2023-03-22T13:05:40.912Z,16.88
2023-03-22T13:09:09.943Z,16.79
2023-03-22T13:12:18.000Z,16.76
2023-03-22T13:15:41.714Z,16.79
2023-03-22T13:18:45.299Z,16.82
2023-03-22T13:21:50.017Z,16.75
2023-03-22T13:25:13.295Z,16.62
2023-03-22T13:28:28.581Z,16.62
2023-03-22T13:31:47.834Z,16.61
2023-03-22T13:34:52.907Z,16.46
2023-03-22T13:38:03.164Z,16.34
2023-03-22T13:41:17.343Z,16.28
2023-03-22T13:44:31.252Z,16.29
2023-03-22T13:47:33.198Z,16.25
2023-03-22T13:50:36.146Z,16.24
2023-03-22T13:53:41.128Z,16.20
2023-03-22T13:57:02.305Z,16.10
2023-03-22T14:00:15.094Z,16.01
2023-03-22T14:03:28.376Z,15.87
2023-03-22T14:06:41.908Z,15.83
2023-03-22T14:09:49.941Z,15.77
2023-03-22T14:13:11.694Z,15.69
2023-03-22T14:16:42.011Z,15.67
2023-03-22T14:19:45.895Z,15.71
